createdAt,value
2019-04-07T00:26:42.011Z,92.22
2019-04-07T00:29:28.864Z,82.85
2019-04-07T00:32:15.485Z,99.25
2019-04-07T00:35:03.079Z,98.03
2019-04-07T00:37:50.332Z,101.38
2019-04-07T00:40:37.079Z,85.50
2019-04-07T00:43:24.234Z,90.87
2019-04-07T00:46:11.381Z,96.50
2019-04-07T00:48:58.153Z,101.15
2019-04-07T00:51:44.745Z,96.97
2019-04-07T00:54:32.622Z,92.15
2019-04-07T00:57:19.891Z,91.95
2019-04-07T01:00:07.100Z,102.38
2019-04-07T01:02:54.157Z,97.95
2019-04-07T01:05:43.247Z,99.52
2019-04-07T01:08:32.591Z,96.95
2019-04-07T01:11:20.037Z,99.52
2019-04-07T01:14:07.029Z,101.60
2019-04-07T01:16:54.526Z,103.12
2019-04-07T01:19:41.704Z,90.77
2019-04-07T01:22:29.034Z,98.95
2019-04-07T01:25:15.969Z,100.53
2019-04-07T01:28:03.141Z,98.20
2019-04-07T01:30:51.588Z,101.22
2019-04-07T01:33:38.970Z,98.67
2019-04-07T01:36:26.474Z,95.53
2019-04-07T01:39:13.186Z,101.02
2019-04-07T01:42:00.372Z,96.75
2019-04-07T01:44:47.282Z,103.53
2019-04-07T01:47:34.475Z,101.15
2019-04-07T01:50:22.096Z,95.83
2019-04-07T01:53:09.159Z,96.10
2019-04-07T01:55:56.493Z,99.07
2019-04-07T01:58:44.808Z,99.92
2019-04-07T02:01:31.326Z,102.27
2019-04-07T02:04:19.190Z,102.92
2019-04-07T02:07:06.284Z,101.40
2019-04-07T02:09:53.330Z,100.40
2019-04-07T02:12:40.366Z,98.67
2019-04-07T02:15:26.987Z,101.55
2019-04-07T02:21:08.541Z,97.53
2019-04-07T02:55:01.092Z,104.80
2019-04-07T03:04:20.419Z,93.33
2019-04-07T03:07:14.150Z,95.95
2019-04-07T04:42:44.319Z,100.27
2019-04-07T05:41:26.197Z,71.92
2019-04-07T09:05:00.280Z,39.83
2019-04-07T11:05:21.749Z,28.55
2019-04-07T11:08:08.958Z,28.60
2019-04-07T11:10:56.169Z,26.27
2019-04-07T11:13:42.907Z,27.10
2019-04-07T11:16:31.219Z,26.50
2019-04-07T11:19:18.776Z,21.68
2019-04-07T13:13:18.696Z,15.43
2019-04-07T15:16:36.995Z,15.38
2019-04-07T17:40:58.489Z,23.10
2019-04-07T19:44:34.889Z,17.27
2019-04-07T19:47:15.134Z,27.07
2019-04-07T19:50:02.747Z,17.98
2019-04-07T19:52:49.866Z,16.93
2019-04-07T19:55:36.896Z,18.40
2019-04-07T19:58:24.316Z,20.75
2019-04-07T20:01:10.965Z,16.17
2019-04-07T20:07:00.611Z,18.02
2019-04-07T20:09:48.423Z,16.87
2019-04-07T20:12:38.235Z,18.05
2019-04-07T20:15:24.102Z,18.05
2019-04-07T20:18:11.109Z,18.30
2019-04-07T20:20:58.493Z,18.35
2019-04-07T20:23:45.946Z,16.25
2019-04-07T20:26:33.426Z,17.17
2019-04-07T20:29:20.560Z,14.55
2019-04-07T20:32:07.313Z,16.82
2019-04-07T20:34:54.598Z,16.52
2019-04-07T20:37:42.209Z,18.42
2019-04-07T20:40:29.564Z,21.25
2019-04-07T20:43:16.501Z,17.48
2019-04-07T20:46:04.633Z,16.10
2019-04-07T20:48:51.907Z,14.00
2019-04-07T20:51:31.625Z,16.07
2019-04-07T20:54:17.347Z,15.28
2019-04-07T21:48:49.412Z,14.83
2019-04-07T21:51:29.071Z,15.10
2019-04-07T21:54:16.011Z,15.83
2019-04-07T21:57:02.818Z,12.68
2019-04-07T22:00:00.715Z,15.53
2019-04-07T22:02:35.770Z,14.15
2019-04-07T22:05:23.930Z,20.25
2019-04-07T22:08:17.364Z,17.85
2019-04-07T22:10:49.938Z,14.85
2019-04-07T22:13:17.043Z,17.42
2019-04-07T22:15:54.223Z,13.58
2019-04-07T22:18:17.353Z,19.05
2019-04-07T22:20:47.870Z,14.93
2019-04-07T22:23:17.127Z,15.72
2019-04-07T22:25:54.029Z,15.45
2019-04-07T22:28:27.636Z,15.18
2019-04-07T22:30:55.242Z,17.95
2019-04-07T22:33:26.047Z,17.50
2019-04-07T22:35:55.312Z,20.72
2019-04-07T22:38:25.044Z,14.70
2019-04-07T22:40:54.807Z,17.17
2019-04-07T22:43:24.840Z,14.80
2019-04-07T22:46:04.117Z,15.53
2019-04-07T22:48:26.800Z,17.45
2019-04-07T22:50:55.916Z,15.30
2019-04-07T22:53:28.503Z,17.25
2019-04-07T22:55:55.756Z,15.78
2019-04-07T22:58:24.694Z,18.60
2019-04-07T23:00:54.288Z,18.37
2019-04-07T23:03:23.987Z,18.12
2019-04-07T23:05:53.366Z,16.42
2019-04-07T23:08:22.571Z,18.57
2019-04-07T23:10:51.412Z,17.42
2019-04-07T23:13:20.428Z,17.80
2019-04-07T23:15:50.258Z,17.77
2019-04-07T23:18:20.729Z,17.32
2019-04-07T23:20:50.196Z,17.32
2019-04-07T23:23:19.149Z,17.27
2019-04-07T23:25:48.160Z,19.70
2019-04-07T23:28:17.180Z,20.48
2019-04-07T23:30:47.120Z,23.87
2019-04-07T23:33:16.416Z,19.30
2019-04-07T23:35:45.418Z,18.62
2019-04-07T23:38:14.347Z,19.45
2019-04-07T23:40:43.340Z,20.57
2019-04-07T23:43:12.969Z,18.25
2019-04-07T23:45:42.303Z,18.07
2019-04-07T23:48:11.306Z,19.17
2019-04-07T23:50:40.992Z,21.57
2019-04-07T23:53:47.100Z,17.98
2019-04-07T23:56:16.388Z,22.73
2019-04-07T23:58:45.652Z,23.42
